Audacious — NA34 — position and weather

sailwx.info

Track history (hours):
 
Tides and Currents Weather Stations Pressure Air Temp Water Temp Dewpoint Dewpoint Depression Visibility Wind Speed Wind Dir Waves Ship Positions

Audacious

Last reported at 2018-Jun-21 04:29 UTC. Time now 2018-Jun-21 11:48 UTC.
Position N 39°22' W 076°08'.

Length 14 m.

Type: Sailing vessel. MMSI: 369970075.

Date/timePositionNaut miles runAvg speedWind from/ knotsBaromVisibWave heightAir tempDewpointWater temp
2018-Jun-21 04:29N 39°22' W 076°08'3 5.8
2018-Jun-21 04:00N 39°24' W 076°04'3 6.1
2018-Jun-21 03:30N 39°25' W 076°01'3 6.5
2018-Jun-21 03:00N 39°28' W 075°58'4 8.1
2018-Jun-21 02:30N 39°30' W 075°55'4 8.4
2018-Jun-21 01:59N 39°32' W 075°49'4 8.9
2018-Jun-21 01:30N 39°33' W 075°44'4 8.8
2018-Jun-21 01:00N 39°33' W 075°38'4 8.4
2018-Jun-21 00:30N 39°34' W 075°33'3 5.9
2018-Jun-21 00:00N 39°31' W 075°33'3 6.1
2018-Jun-20 23:28N 39°27' W 075°33'3 7.3
2018-Jun-20 23:00N 39°25' W 075°30'4 8.4
2018-Jun-20 22:30N 39°22' W 075°27'4 8.2
2018-Jun-20 22:00N 39°19' W 075°23'4 8.7
2018-Jun-20 21:30N 39°15' W 075°19'4 8.6
2018-Jun-20 21:00N 39°12' W 075°17'4 8.5
2018-Jun-20 20:30N 39°08' W 075°13'4 8.4
2018-Jun-20 20:00N 39°05' W 075°11'4 8.4
2018-Jun-20 19:29N 39°01' W 075°09'4 8.7
2018-Jun-20 19:00N 38°57' W 075°06'5 9.1
2018-Jun-20 18:27N 38°52' W 075°03'4 7.5
2018-Jun-20 17:57N 38°49' W 075°00'5 9.0
2018-Jun-20 17:26N 38°50' W 074°54'3 6.6
2018-Jun-20 16:56N 38°51' W 074°51'24 4.6
2018-Jun-20 11:42N 39°09' W 074°30'31 7.7
2018-Jun-20 07:42N 39°34' W 074°08'3 7.6
2018-Jun-20 07:18N 39°37' W 074°05'2 7.5
2018-Jun-20 07:00N 39°39' W 074°04'4 7.4
2018-Jun-20 06:29N 39°42' W 074°01'4 7.2
2018-Jun-20 05:59N 39°45' W 073°59'53 7.3
2018-Jun-19 22:43N 40°38' W 074°03'2 8.5
2018-Jun-19 22:30N 40°40' W 074°03'3 5.7
2018-Jun-19 22:00N 40°43' W 074°02'0 0.3
2018-Jun-19 21:28N 40°43' W 074°02'0 0.0
2018-Jun-19 20:58N 40°43' W 074°02'0 0.1
2018-Jun-19 20:30N 40°43' W 074°02'76 4.1
2018-Jun-19 02:11N 41°09' W 072°29'1 5.2
2018-Jun-19 01:55N 41°10' W 072°27'3 2.2
2018-Jun-19 00:42N 41°10' W 072°24'  
2018-Jun-11 16:35N 38°51' W 076°26'0 5.0
2018-Jun-11 16:30N 38°51' W 076°25'3 5.9
2018-Jun-11 15:59N 38°54' W 076°25'2 4.8
2018-Jun-11 15:30N 38°56' W 076°25'2 3.2
2018-Jun-11 14:57N 38°58' W 076°27'  
Track history (hours):
 
Tides and Currents Weather Stations Pressure Air Temp Water Temp Dewpoint Dewpoint Depression Visibility Wind Speed Wind Dir Waves Ship Positions

Audacious

Last reported at 2018-Jun-21 04:29 UTC. Time now 2018-Jun-21 11:48 UTC.
Position N 39°22' W 076°08'.

Length 14 m.

Type: Sailing vessel. MMSI: 369970075.

Date/timePositionNaut miles runAvg speedWind from/ knotsBaromVisibWave heightAir tempDewpointWater temp
2018-Jun-21 04:29N 39°22' W 076°08'3 5.8
2018-Jun-21 04:00N 39°24' W 076°04'3 6.1
2018-Jun-21 03:30N 39°25' W 076°01'3 6.5
2018-Jun-21 03:00N 39°28' W 075°58'4 8.1
2018-Jun-21 02:30N 39°30' W 075°55'4 8.4
2018-Jun-21 01:59N 39°32' W 075°49'4 8.9
2018-Jun-21 01:30N 39°33' W 075°44'4 8.8
2018-Jun-21 01:00N 39°33' W 075°38'4 8.4
2018-Jun-21 00:30N 39°34' W 075°33'3 5.9
2018-Jun-21 00:00N 39°31' W 075°33'3 6.1
2018-Jun-20 23:28N 39°27' W 075°33'3 7.3
2018-Jun-20 23:00N 39°25' W 075°30'4 8.4
2018-Jun-20 22:30N 39°22' W 075°27'4 8.2
2018-Jun-20 22:00N 39°19' W 075°23'4 8.7
2018-Jun-20 21:30N 39°15' W 075°19'4 8.6
2018-Jun-20 21:00N 39°12' W 075°17'4 8.5
2018-Jun-20 20:30N 39°08' W 075°13'4 8.4
2018-Jun-20 20:00N 39°05' W 075°11'4 8.4
2018-Jun-20 19:29N 39°01' W 075°09'4 8.7
2018-Jun-20 19:00N 38°57' W 075°06'5 9.1
2018-Jun-20 18:27N 38°52' W 075°03'4 7.5
2018-Jun-20 17:57N 38°49' W 075°00'5 9.0
2018-Jun-20 17:26N 38°50' W 074°54'3 6.6
2018-Jun-20 16:56N 38°51' W 074°51'24 4.6
2018-Jun-20 11:42N 39°09' W 074°30'31 7.7
2018-Jun-20 07:42N 39°34' W 074°08'3 7.6
2018-Jun-20 07:18N 39°37' W 074°05'2 7.5
2018-Jun-20 07:00N 39°39' W 074°04'4 7.4
2018-Jun-20 06:29N 39°42' W 074°01'4 7.2
2018-Jun-20 05:59N 39°45' W 073°59'53 7.3
2018-Jun-19 22:43N 40°38' W 074°03'2 8.5
2018-Jun-19 22:30N 40°40' W 074°03'3 5.7
2018-Jun-19 22:00N 40°43' W 074°02'0 0.3
2018-Jun-19 21:28N 40°43' W 074°02'0 0.0
2018-Jun-19 20:58N 40°43' W 074°02'0 0.1
2018-Jun-19 20:30N 40°43' W 074°02'76 4.1
2018-Jun-19 02:11N 41°09' W 072°29'1 5.2
2018-Jun-19 01:55N 41°10' W 072°27'3 2.2
2018-Jun-19 00:42N 41°10' W 072°24'  
2018-Jun-11 16:35N 38°51' W 076°26'0 5.0
2018-Jun-11 16:30N 38°51' W 076°25'3 5.9
2018-Jun-11 15:59N 38°54' W 076°25'2 4.8
2018-Jun-11 15:30N 38°56' W 076°25'2 3.2
2018-Jun-11 14:57N 38°58' W 076°27'  

Dump ship's entire track history